• Join FlightAware (Why Join?)
  • Login
  • US Flag GB Flag 
23:55 EDT


 

Airport Tracker/Info


-or-


 

Live Flight TrackerFlight Track Log ✈ SWA484 ✈ 03-May-2013 ✈ KMCO - KBDL

Flight Track Log - Related Links

Times and Time Zones

All times are in EDT time to prevent confusion due to time zone crossing. See the SWA484 flight status page for this flight to view local times or setup timezone preferences in your user account.

Time Position Orientation Groundspeed Altitude Reporting Facility
EDT Latitude Longitude Course Direction KTS MPH feet Rate Location/Type
09:37 28.4333 -81.3000 19° North 174 200 500  Level Orlando TRACON
09:39 28.5167 -81.2667 19° North 218 251 4,000 2,280 Climbing Orlando TRACON
09:40 28.5833 -81.2333 24° Northeast 261 300 6,200 1,740 Climbing Orlando TRACON
09:42 28.7197 -81.2567 351° North 269 310 9,500 1,800 Climbing Jacksonville Center
09:43 28.8014 -81.2861 342° North 285 328 11,800 2,700 Climbing Jacksonville Center
09:44 28.8978 -81.3203 343° North 324 373 14,900 2,880 Climbing Jacksonville Center
09:45 29.0006 -81.3542 344° North 360 414 17,600 2,700 Climbing Jacksonville Center
09:46 29.1033 -81.3883 344° North 382 440 20,300 2,340 Climbing Jacksonville Center
09:47 29.2183 -81.4128 349° North 395 455 22,300 2,100 Climbing Jacksonville Center
09:48 29.3339 -81.4728 336° Northwest 424 488 24,600 2,100 Climbing Jacksonville Center
09:49 29.4492 -81.5283 337° Northwest 441 507 26,600 1,800 Climbing Jacksonville Center
09:50 29.5689 -81.5864 337° Northwest 453 521 28,200 1,500 Climbing Jacksonville Center
09:51 29.7006 -81.6181 348° North 469 540 29,700 1,440 Climbing Jacksonville Center
09:52 29.8339 -81.5950 North 464 534 31,100 1,680 Climbing Jacksonville Center
09:53 29.9694 -81.5739 North 476 548 33,100 1,920 Climbing Jacksonville Center
09:54 30.1008 -81.5481 10° North 476 548 35,000 900 Climbing Jacksonville Center
09:55 30.2342 -81.5244 North 482 555 35,000  Level Jacksonville Center
09:56 30.3675 -81.5033 North 482 555 35,000  Level Jacksonville Center
09:57 30.5008 -81.4797 North 482 555 35,000  Level Jacksonville Center
09:58 30.6322 -81.4608 North 482 555 35,000  Level Jacksonville Center
09:59 30.7678 -81.4372 North 487 560 35,000  Level Jacksonville Center
10:00 30.8967 -81.3989 14° North 482 555 35,000  Level Jacksonville Center
10:01 31.0128 -81.3219 30° Northeast 474 545 35,000  Level Jacksonville Center
10:02 31.1286 -81.2422 30° Northeast 469 540 35,000  Level Jacksonville Center
10:03 31.2467 -81.1647 29° Northeast 475 547 35,000  Level Jacksonville Center
10:04 31.3625 -81.0872 30° Northeast 480 552 35,000  Level Jacksonville Center
10:05 31.4906 -80.9994 30° Northeast 480 552 35,000  Level Jacksonville Center
10:06 31.6064 -80.9217 30° Northeast 475 547 35,000 660 Level Jacksonville Center
10:07 31.7117 -80.8533 29° Northeast 475 547 36,400 960 Climbing Jacksonville Center
10:08 31.8356 -80.7675 30° Northeast 475 547 37,000 300 Climbing Jacksonville Center
10:09 31.9492 -80.6914 30° Northeast 475 547 37,000  Level Jacksonville Center
10:10 32.0667 -80.6125 30° Northeast 482 555 37,000  Level Jacksonville Center
10:11 32.1697 -80.5414 30° Northeast 482 555 37,000  Level Jacksonville Center
10:12 32.2850 -80.4597 31° Northeast 477 549 37,000  Level Jacksonville Center
10:13 32.3983 -80.3806 31° Northeast 477 549 37,000  Level Jacksonville Center
10:14 32.5136 -80.3033 29° Northeast 472 543 37,000  Level Jacksonville Center
10:15 32.6228 -80.2239 31° Northeast 467 537 37,000  Level Jacksonville Center
10:16 32.7358 -80.1489 29° Northeast 462 532 37,000  Level Jacksonville Center
10:17 32.8489 -80.0689 31° Northeast 462 532 37,000  Level Jacksonville Center
10:18 32.9619 -79.9861 32° Northeast 462 532 37,000  Level Jacksonville Center
10:19 33.0872 -79.8978 31° Northeast 474 545 37,000  Level Jacksonville Center
10:20 33.2019 -79.8144 31° Northeast 469 540 37,000  Level Jacksonville Center
10:21 33.3128 -79.7336 31° Northeast 469 540 37,000  Level Jacksonville Center
10:22 33.4256 -79.6522 31° Northeast 469 540 37,000 780 Level Jacksonville Center
10:23 33.5339 -79.5711 32° Northeast 464 534 38,600 900 Climbing Jacksonville Center
10:24 33.6444 -79.4897 31° Northeast 464 534 38,900 180 Climbing Jacksonville Center
10:25 33.7303 -79.4239 33° Northeast 464 534 39,000  Climbing Jacksonville Center
10:26 33.8511 -79.3367 31° Northeast 459 528 38,900  Descending Jacksonville Center
10:27 33.9633 -79.2519 32° Northeast 464 534 39,000  Climbing Jacksonville Center
10:29 34.2047 -79.0747 31° Northeast 489 563 39,000  Level Washington Center
10:30 34.3156 -78.9889 33° Northeast 482 555 39,000 -60 Level Washington Center
10:31 34.4328 -78.9056 30° Northeast 482 555 38,900  Descending Washington Center
10:32 34.5308 -78.8239 34° Northeast 482 555 39,000  Climbing Washington Center
10:33 34.6458 -78.7375 32° Northeast 482 555 39,000  Level Washington Center
10:34 34.7714 -78.6414 32° Northeast 482 555 39,000  Level Washington Center
10:35 34.8714 -78.5639 32° Northeast 482 555 39,000  Level Washington Center
10:36 34.9819 -78.4794 32° Northeast 476 548 39,000  Level Washington Center
10:37 35.0925 -78.3944 32° Northeast 471 542 39,000  Level Washington Center
10:38 35.2031 -78.3067 33° Northeast 465 535 39,000  Level Washington Center
10:39 35.3114 -78.2239 32° Northeast 465 535 39,000  Level Washington Center
10:40 35.4217 -78.1383 32° Northeast 465 535 39,000  Level Washington Center
10:41 35.5319 -78.0525 32° Northeast 465 535 39,000  Level Washington Center
10:42 35.6400 -77.9689 32° Northeast 459 528 39,000  Level Washington Center
10:43 35.7481 -77.8853 32° Northeast 459 528 39,000  Level Washington Center
10:44 35.8561 -77.8011 32° Northeast 459 528 39,000  Level Washington Center
10:45 35.9642 -77.7169 32° Northeast 459 528 39,000  Level Washington Center
10:46 36.0658 -77.6244 36° Northeast 459 528 39,000  Level Washington Center
10:47 36.1656 -77.5294 38° Northeast 459 528 39,000  Level Washington Center
10:48 36.2733 -77.4289 37° Northeast 449 517 39,000  Level Washington Center
10:49 36.3750 -77.3306 38° Northeast 449 517 39,000  Level Washington Center
10:50 36.4767 -77.2347 37° Northeast 449 517 39,000  Level Washington Center
10:51 36.5800 -77.1386 37° Northeast 449 517 39,000  Level Washington Center
10:52 36.6836 -77.0422 37° Northeast 449 517 39,000  Level Washington Center
10:53 36.7847 -76.9456 37° Northeast 454 522 39,000  Level Washington Center
10:54 36.8881 -76.8539 35° Northeast 454 522 39,000  Level Washington Center
10:55 36.9911 -76.7619 35° Northeast 454 522 39,000  Level Washington Center
10:56 37.0817 -76.6775 37° Northeast 454 522 39,000  Level Washington Center
10:57 37.1847 -76.5850 36° Northeast 454 522 39,000  Level Washington Center
10:58 37.2814 -76.4925 37° Northeast 454 522 39,000  Level Washington Center
10:59 37.3819 -76.4072 34° Northeast 454 522 39,000  Level Washington Center
11:00 37.4933 -76.3039 36° Northeast 454 522 39,000  Level Washington Center
11:01 37.5814 -76.2233 36° Northeast 454 522 39,000 -60 Level Washington Center
11:02 37.6903 -76.1297 34° Northeast 444 511 38,900 -60 Descending Washington Center
11:03 37.7697 -76.0567 36° Northeast 438 504 38,900  Level Washington Center
11:04 37.8764 -75.9522 38° Northeast 438 504 39,000  Climbing Washington Center
11:05 37.9747 -75.8553 38° Northeast 438 504 39,000  Level Washington Center
11:06 38.0750 -75.7631 36° Northeast 438 504 39,000  Level Washington Center
11:07 38.1711 -75.6736 36° Northeast 438 504 39,000  Level Washington Center
11:08 38.2794 -75.5678 37° Northeast 438 504 39,000 -60 Level Washington Center
11:09 38.3775 -75.4989 29° Northeast 438 504 38,900 -60 Descending Washington Center
11:10 38.4878 -75.4511 19° North 421 484 38,900  Level Washington Center
11:11 38.6044 -75.4058 17° North 421 484 38,900  Level Washington Center
11:12 38.7169 -75.3603 18° North 421 484 38,900  Level Washington Center
11:13 38.8233 -75.2906 27° Northeast 421 484 39,000  Climbing Washington Center
11:14 38.9189 -75.1942 38° Northeast 421 484 38,900 -60 Descending Washington Center
11:15 39.0144 -75.0975 38° Northeast 431 496 38,900  Level Washington Center
11:16 39.1097 -75.0031 38° Northeast 431 496 38,900  Level Washington Center
11:17 39.2053 -74.9114 37° Northeast 431 496 39,000  Climbing Washington Center
11:18 39.3006 -74.8192 37° Northeast 431 496 38,900  Descending Washington Center
11:19 39.3958 -74.7242 38° Northeast 431 496 39,000  Climbing Washington Center
11:20 39.5756 -74.5522 36° Northeast 430 495 38,900 -600 Descending New York Center
11:21 39.6508 -74.4808 36° Northeast 425 489 37,500 -2,100 Descending New York Center
11:22 39.7458 -74.3725 41° Northeast 420 483 34,700 -2,580 Descending New York Center
11:23 39.8364 -74.2797 38° Northeast 420 483 32,400 -2,520 Descending New York Center
11:24 39.9350 -74.1819 37° Northeast 414 476 29,800 -2,340 Descending New York Center
11:25 40.0186 -74.0992 37° Northeast 395 455 27,700 -2,160 Descending New York Center
11:26 40.1025 -74.0136 38° Northeast 381 438 25,600 -1,380 Descending New York Center
11:27 40.1775 -73.9358 38° Northeast 369 425 25,000 -300 Descending New York Center
11:28 40.2589 -73.8581 36° Northeast 356 410 25,000  Level New York Center
11:29 40.3400 -73.7772 37° Northeast 373 429 25,000  Level New York Center
11:31 40.5253 -73.5786 39° Northeast 407 468 25,000 -300 Level Boston Center
11:32 40.6136 -73.4872 38° Northeast 407 468 24,200 -1,680 Descending Boston Center
11:33 40.6958 -73.3981 39° Northeast 395 455 21,700 -2,340 Descending Boston Center
11:34 40.7672 -73.3333 34° Northeast 389 448 19,600 -1,380 Descending Boston Center
11:35 40.8511 -73.2386 40° Northeast 377 434 19,000 -300 Descending Boston Center
11:36 40.9289 -73.1461 42° Northeast 371 427 19,000  Level Boston Center
11:37 41.0067 -73.0589 40° Northeast 366 421 19,000 -540 Level Boston Center
11:38 41.0861 -72.9633 42° Northeast 366 421 18,000 -1,440 Descending Boston Center
11:39 41.1617 -72.8731 42° Northeast 366 421 16,200 -2,340 Descending Boston Center
11:40 41.2392 -72.7825 41° Northeast 366 421 13,400 -2,820 Descending Boston Center
11:41 41.3122 -72.7164 34° Northeast 353 406 11,100 -1,920 Descending Boston Center
11:42 41.4039 -72.7500 345° North 357 411 10,100 -960 Descending Boston Center
11:42 41.4142 -72.7500 360° North 319 367 10,000 -480 Descending Boston Center
11:43 41.4975 -72.7756 347° North 309 356 9,500 -720 Descending Boston Center
11:44 41.5828 -72.7953 350° North 294 338 8,600 -900 Descending Boston Center
11:45 41.6369 -72.8067 351° North 252 290 8,000 -720 Descending Boston Center
11:46 41.7036 -72.8294 346° North 247 284 7,400 -900 Descending Boston Center
11:47 41.7619 -72.8631 337° Northwest 227 261 6,200 -1,320 Descending Boston Center
11:48 41.8244 -72.8356 18° North 195 224 4,600 -1,380 Descending Boston Center
11:49 41.8581 -72.7969 41° Northeast 162 186 3,300 -1,380 Descending Boston Center
11:50 41.8853 -72.7608 45° Northeast 139 160 1,900 -1,320 Descending Boston Center
11:51 41.9103 -72.7303 42° Northeast 136 157 800 -720 Descending Boston Center
11:52 41.9375 -72.6942 45° Northeast 130 150 500 -300 Descending Boston Center
11:57 41.9333 -72.6833 45° Northeast  Level FlightAware Approximate
12:04 41.9392 -72.6834 45° Northeast  Level Estimated